Bookmark and Share
Track history (hours):
 

Myra Eckstein

More information available from US FCC via Universal Licensing System and Coast Guard Vessel Documentation Center.

Last reported at 2014-Apr-18 20:29 UTC. Time now 2014-Apr-24 00:09 UTC.
Position N 30°03' W 090°39'.

Length 47 m; draft 3.5 m.

Type: Towing. MMSI: 367505510.

NotesDate/timePositionNaut miles runAvg speedWind from/ knotsBaromVisibWave heightAir tempDewpointWater temp
2014-Apr-18 20:29N 30°03' W 090°39'5 5.5
2014-Apr-18 19:33N 30°03' W 090°33'14 1.4
2014-Apr-18 10:07N 29°56' W 090°19'0 0.0
2014-Apr-18 08:25N 29°56' W 090°19'0 0.0
2014-Apr-18 06:21N 29°56' W 090°19'0 0.0
2014-Apr-18 05:24N 29°56' W 090°19'0 0.0
2014-Apr-18 04:20N 29°56' W 090°19'4 0.2
2014-Apr-17 10:31N 29°58' W 090°14'0 0.0
2014-Apr-17 09:33N 29°58' W 090°14'0 0.0
2014-Apr-17 08:31N 29°58' W 090°14'0 0.0
2014-Apr-17 07:27N 29°58' W 090°14'5 0.2
2014-Apr-16 05:33N 29°56' W 090°20'6 5.6
2014-Apr-16 04:33N 29°60' W 090°25'4 3.9
2014-Apr-16 03:33N 30°02' W 090°29'0 0.1
2014-Apr-16 02:33N 30°02' W 090°28'0 0.2
2014-Apr-16 01:33N 30°02' W 090°29'0 0.1
2014-Apr-16 00:33N 30°02' W 090°29'0 0.3
2014-Apr-15 23:33N 30°02' W 090°28'5 5.0
2014-Apr-15 22:33N 30°03' W 090°34'0 0.0
2014-Apr-15 21:33N 30°03' W 090°34'0 0.0
2014-Apr-15 20:33N 30°03' W 090°34'0 0.0
2014-Apr-15 19:33N 30°03' W 090°34'0 0.0
2014-Apr-15 18:33N 30°03' W 090°34'0 0.1
2014-Apr-15 17:33N 30°03' W 090°34'0 0.0
2014-Apr-15 16:33N 30°03' W 090°34'0 0.0
2014-Apr-15 15:33N 30°03' W 090°34'0 0.0
2014-Apr-15 14:33N 30°03' W 090°34'0 0.0
2014-Apr-15 12:34N 30°03' W 090°34'0 0.2
2014-Apr-15 11:34N 30°03' W 090°34'0 0.1
2014-Apr-15 10:34N 30°03' W 090°34'1 1.1
2014-Apr-15 09:34N 30°03' W 090°36'8 8.0
2014-Apr-15 08:33N 30°01' W 090°45'5 4.5
2014-Apr-15 07:32N 30°01' W 090°50'  

Dump ship's entire track history

sailing weather and tide predictions

Myra Eckstein — WDF9473 — position and weather